createdAt,value
2022-08-21T00:00:20.391Z,83.48
2022-08-21T00:03:17.339Z,83.72
2022-08-21T00:06:01.436Z,84.26
2022-08-21T00:08:49.213Z,84.03
2022-08-21T00:11:34.471Z,84.79
2022-08-21T00:14:23.317Z,84.66
2022-08-21T00:17:04.486Z,84.73
2022-08-21T00:19:51.383Z,85.12
2022-08-21T00:22:45.640Z,85.54
2022-08-21T00:25:34.300Z,85.63
2022-08-21T00:28:18.957Z,86.02
2022-08-21T00:31:09.925Z,86.16
2022-08-21T00:33:53.059Z,86.40
2022-08-21T00:36:49.373Z,87.07
2022-08-21T00:39:31.011Z,87.08
2022-08-21T00:42:21.428Z,87.59
2022-08-21T00:45:02.227Z,87.54
2022-08-21T00:47:50.946Z,88.01
2022-08-21T00:50:39.608Z,88.36
2022-08-21T00:53:27.786Z,87.92
2022-08-21T00:56:10.249Z,88.32
2022-08-21T00:59:03.371Z,88.70
2022-08-21T01:01:45.372Z,89.14
2022-08-21T01:04:34.097Z,88.52
2022-08-21T01:07:16.347Z,88.63
2022-08-21T01:10:06.419Z,88.93
2022-08-21T01:12:48.999Z,89.46
2022-08-21T01:15:39.459Z,89.36
2022-08-21T01:18:21.286Z,88.94
2022-08-21T01:21:15.388Z,89.42
2022-08-21T01:24:00.728Z,88.81
2022-08-21T01:26:49.160Z,89.67
2022-08-21T01:29:55.260Z,89.85
2022-08-21T01:32:44.389Z,89.79
2022-08-21T01:35:27.259Z,89.98
2022-08-21T01:38:17.095Z,90.08
2022-08-21T01:40:58.259Z,89.90
2022-08-21T01:43:46.393Z,89.24
2022-08-21T01:46:27.771Z,89.58
2022-08-21T01:49:16.266Z,89.60
2022-08-21T01:51:57.398Z,89.57
2022-08-21T01:54:46.408Z,89.05
2022-08-21T01:57:36.683Z,90.71
2022-08-21T02:00:28.977Z,91.39
2022-08-21T02:03:11.024Z,89.96
2022-08-21T02:05:58.401Z,90.74
2022-08-21T02:08:40.482Z,91.22
2022-08-21T02:11:28.926Z,91.48
2022-08-21T02:14:10.279Z,90.53
2022-08-21T02:17:08.800Z,91.77
2022-08-21T02:19:50.691Z,92.87
2022-08-21T02:22:37.800Z,93.28
2022-08-21T02:25:19.440Z,93.41
2022-08-21T02:28:12.420Z,93.77
2022-08-21T02:30:56.447Z,94.50
2022-08-21T02:33:43.530Z,94.40
2022-08-21T02:36:25.896Z,94.57
2022-08-21T02:39:13.416Z,94.33
2022-08-21T02:41:54.467Z,94.68
2022-08-21T02:44:43.448Z,94.62
2022-08-21T02:47:25.596Z,94.92
2022-08-21T02:50:15.465Z,94.40
2022-08-21T02:53:00.718Z,95.69
2022-08-21T02:55:48.288Z,94.70
2022-08-21T02:58:36.334Z,93.96
2022-08-21T03:01:23.471Z,94.71
2022-08-21T03:04:06.636Z,94.59
2022-08-21T03:06:53.685Z,95.73
2022-08-21T03:09:35.759Z,96.15
2022-08-21T03:12:23.439Z,96.22
2022-08-21T03:15:07.777Z,96.53
2022-08-21T03:17:55.663Z,96.56
2022-08-21T03:20:50.367Z,97.42
2022-08-21T03:23:41.035Z,97.71
2022-08-21T03:26:23.823Z,97.69
2022-08-21T03:29:11.694Z,97.51
2022-08-21T03:31:53.437Z,97.41
2022-08-21T03:34:40.646Z,96.84
2022-08-21T03:37:22.854Z,97.09
2022-08-21T03:40:15.870Z,97.32
2022-08-21T03:42:57.001Z,96.17
2022-08-21T03:45:47.433Z,96.05
2022-08-21T03:48:29.767Z,96.42
2022-08-21T03:51:19.531Z,96.47
2022-08-21T03:54:02.348Z,96.12
2022-08-21T03:56:50.529Z,96.18
2022-08-21T03:59:31.429Z,95.77
2022-08-21T04:02:19.868Z,96.25
2022-08-21T04:05:00.411Z,96.22
2022-08-21T04:07:47.492Z,96.46
2022-08-21T04:10:28.772Z,96.41
2022-08-21T04:13:17.315Z,96.95
2022-08-21T04:15:58.361Z,97.43
2022-08-21T04:18:50.453Z,97.03
2022-08-21T04:21:46.395Z,96.77
2022-08-21T04:24:35.654Z,96.74
2022-08-21T04:27:16.437Z,96.71
2022-08-21T04:30:04.455Z,97.26
2022-08-21T04:32:45.733Z,97.40
2022-08-21T04:35:34.660Z,97.58
2022-08-21T04:38:19.419Z,97.38
2022-08-21T04:41:07.488Z,96.67
2022-08-21T04:43:48.362Z,96.82
2022-08-21T04:46:35.519Z,96.88
2022-08-21T04:49:16.396Z,96.76
2022-08-21T04:52:04.667Z,97.17
2022-08-21T04:54:45.776Z,96.72
2022-08-21T04:57:48.254Z,97.20
2022-08-21T05:00:32.757Z,96.96
2022-08-21T05:03:23.505Z,96.74
2022-08-21T05:06:04.765Z,96.51
2022-08-21T05:08:58.827Z,96.17
2022-08-21T05:11:44.395Z,96.46
2022-08-21T05:14:34.104Z,97.02
2022-08-21T05:17:16.202Z,96.26
2022-08-21T05:20:04.341Z,96.30
2022-08-21T05:22:51.443Z,96.15
2022-08-21T05:25:32.489Z,93.73
2022-08-21T05:28:23.529Z,93.07
2022-08-21T05:31:04.887Z,92.92
2022-08-21T05:33:53.115Z,93.24
2022-08-21T05:36:36.510Z,93.71
2022-08-21T05:39:26.427Z,94.09
2022-08-21T05:42:07.625Z,93.78
2022-08-21T05:44:54.458Z,93.88
2022-08-21T05:47:35.497Z,94.08
2022-08-21T05:50:24.393Z,94.45
2022-08-21T05:53:10.874Z,94.62
2022-08-21T05:55:58.521Z,94.69
2022-08-21T05:58:40.528Z,94.68
2022-08-21T06:01:28.490Z,94.91
2022-08-21T06:04:12.819Z,94.73
2022-08-21T06:07:00.492Z,94.92
2022-08-21T06:09:41.664Z,94.63
2022-08-21T06:12:30.443Z,93.58
2022-08-21T06:15:12.987Z,92.92
2022-08-21T06:18:02.445Z,93.24
2022-08-21T06:20:50.418Z,93.37
2022-08-21T06:23:47.235Z,93.01
2022-08-21T06:26:34.592Z,92.19
2022-08-21T06:29:18.670Z,91.14
2022-08-21T06:32:09.464Z,89.99
2022-08-21T06:34:51.648Z,88.78
2022-08-21T06:37:39.602Z,86.86
2022-08-21T06:40:20.518Z,84.36
2022-08-21T06:43:20.525Z,82.03
2022-08-21T06:46:02.603Z,80.58
2022-08-21T06:48:50.526Z,79.50
2022-08-21T06:51:38.458Z,79.16
2022-08-21T06:54:26.571Z,78.87
2022-08-21T06:57:07.907Z,78.68
2022-08-21T06:59:56.439Z,78.52
2022-08-21T07:02:37.911Z,78.32
2022-08-21T07:05:36.779Z,78.89
2022-08-21T07:08:17.955Z,79.49
2022-08-21T07:11:14.037Z,79.12
2022-08-21T07:13:55.416Z,79.03
2022-08-21T07:16:45.575Z,79.04
2022-08-21T07:19:51.661Z,78.50
2022-08-21T07:22:45.430Z,78.87
2022-08-21T07:25:34.244Z,79.02
2022-08-21T07:28:15.601Z,78.52
2022-08-21T07:31:05.537Z,77.90
2022-08-21T07:33:48.103Z,77.44
2022-08-21T07:36:36.622Z,76.66
2022-08-21T07:39:18.774Z,75.80
2022-08-21T07:42:08.495Z,74.81
2022-08-21T07:44:50.780Z,74.47
2022-08-21T07:47:43.219Z,73.51
2022-08-21T07:50:24.592Z,72.88
2022-08-21T07:53:12.795Z,73.26
2022-08-21T07:55:53.599Z,72.89
2022-08-21T07:58:42.979Z,72.42
2022-08-21T08:01:24.252Z,72.87
2022-08-21T08:07:15.991Z,73.73
2022-08-21T08:10:05.939Z,73.73
2022-08-21T08:12:49.611Z,73.63
2022-08-21T08:15:39.553Z,73.36
2022-08-21T08:18:21.042Z,73.59
2022-08-21T08:21:16.475Z,72.79
2022-08-21T08:24:18.991Z,73.16
2022-08-21T08:27:02.629Z,73.53
2022-08-21T08:29:50.105Z,73.09
2022-08-21T08:32:34.004Z,72.33
2022-08-21T08:35:22.367Z,72.04
2022-08-21T08:38:07.447Z,72.50
2022-08-21T08:41:23.031Z,71.28
2022-08-21T08:44:12.589Z,69.74
2022-08-21T08:47:00.615Z,67.92
2022-08-21T08:50:03.003Z,67.55
2022-08-21T08:53:00.283Z,65.37
2022-08-21T08:55:45.287Z,64.28
2022-08-21T08:58:46.619Z,62.64
2022-08-21T09:01:28.625Z,61.70
2022-08-21T09:04:19.443Z,61.32
2022-08-21T09:07:31.531Z,59.90
2022-08-21T09:10:45.636Z,58.25
2022-08-21T09:13:56.001Z,56.78
2022-08-21T09:17:02.359Z,55.49
2022-08-21T09:20:06.751Z,55.12
2022-08-21T09:23:08.621Z,54.21
2022-08-21T09:26:07.568Z,54.25
2022-08-21T09:29:04.298Z,53.81
2022-08-21T09:31:45.747Z,54.09
2022-08-21T09:34:38.633Z,54.13
2022-08-21T09:37:25.617Z,54.10
2022-08-21T09:40:34.788Z,54.20
2022-08-21T09:43:18.826Z,54.30
2022-08-21T09:46:18.642Z,53.89
2022-08-21T09:49:06.799Z,53.77
2022-08-21T09:52:02.406Z,54.30
2022-08-21T09:54:47.589Z,54.57
2022-08-21T09:57:46.623Z,54.90
2022-08-21T10:00:38.088Z,54.87
2022-08-21T10:03:28.872Z,54.22
2022-08-21T10:06:17.860Z,54.67
2022-08-21T10:09:18.843Z,54.32
2022-08-21T10:12:20.589Z,54.59
2022-08-21T10:15:21.435Z,54.16
2022-08-21T10:18:02.573Z,55.49
2022-08-21T10:21:25.569Z,55.93
2022-08-21T10:24:31.087Z,56.27
2022-08-21T10:27:33.284Z,58.92
2022-08-21T10:31:01.621Z,60.70
2022-08-21T10:33:59.695Z,62.73
2022-08-21T10:37:23.611Z,62.38
2022-08-21T10:40:30.284Z,62.46
2022-08-21T10:43:48.636Z,61.65
2022-08-21T10:46:52.698Z,61.75
2022-08-21T10:50:03.006Z,60.63
2022-08-21T10:52:59.047Z,61.66
2022-08-21T10:55:55.142Z,62.34
2022-08-21T10:58:44.866Z,62.62
2022-08-21T11:01:41.615Z,62.92
2022-08-21T11:04:49.497Z,63.50
2022-08-21T11:07:45.991Z,63.60
2022-08-21T11:10:59.174Z,63.65
2022-08-21T11:17:22.256Z,64.60
2022-08-21T11:20:22.623Z,65.17
2022-08-21T11:23:24.704Z,65.28
2022-08-21T11:26:16.064Z,66.27
2022-08-21T11:29:23.748Z,67.85
2022-08-21T11:32:10.239Z,68.98
2022-08-21T11:35:12.690Z,69.71
2022-08-21T11:37:56.710Z,70.69
2022-08-21T11:40:46.875Z,73.52
2022-08-21T11:43:53.047Z,76.78
2022-08-21T11:46:54.714Z,77.27
2022-08-21T11:49:42.723Z,79.11
2022-08-21T11:52:37.247Z,82.13
2022-08-21T11:55:17.736Z,83.26
2022-08-21T11:58:28.740Z,85.21
2022-08-21T12:01:33.406Z,84.78
2022-08-21T12:04:43.127Z,84.53
2022-08-21T12:07:43.772Z,85.10
2022-08-21T12:10:41.032Z,84.37
2022-08-21T12:13:42.026Z,84.45
2022-08-21T12:16:40.866Z,84.29
2022-08-21T12:19:37.676Z,84.29
2022-08-21T12:22:34.637Z,85.08
2022-08-21T12:25:27.284Z,85.22
2022-08-21T12:28:18.498Z,85.79
2022-08-21T12:31:05.715Z,85.93
2022-08-21T12:33:47.736Z,84.38
2022-08-21T12:36:57.035Z,85.63
2022-08-21T12:39:40.214Z,86.71
2022-08-21T12:42:35.485Z,86.77
2022-08-21T12:45:40.747Z,86.33
2022-08-21T12:48:42.654Z,86.46
2022-08-21T12:51:30.292Z,83.76
2022-08-21T12:54:17.038Z,82.99
2022-08-21T12:57:31.798Z,82.82
2022-08-21T13:00:21.658Z,82.51
2022-08-21T13:03:04.277Z,82.82
2022-08-21T13:05:50.650Z,80.91
2022-08-21T13:08:39.517Z,80.10
2022-08-21T13:11:33.707Z,81.31
2022-08-21T13:14:24.800Z,82.15
2022-08-21T13:17:20.324Z,80.61
2022-08-21T13:20:11.758Z,77.87
2022-08-21T13:23:06.539Z,78.24
2022-08-21T13:25:50.852Z,79.44
2022-08-21T13:28:53.229Z,79.87
2022-08-21T13:31:37.807Z,80.30
2022-08-21T13:34:28.128Z,82.06
2022-08-21T13:37:13.235Z,84.12
2022-08-21T13:40:00.900Z,83.84
2022-08-21T13:42:42.130Z,85.07
2022-08-21T13:45:38.769Z,84.93
2022-08-21T13:48:24.379Z,84.93
2022-08-21T13:51:17.299Z,84.82
2022-08-21T13:53:59.798Z,85.61
2022-08-21T13:56:55.702Z,84.89
2022-08-21T13:59:42.975Z,85.74
2022-08-21T14:02:31.751Z,86.98
2022-08-21T14:05:12.809Z,86.60
2022-08-21T14:08:30.434Z,87.69
2022-08-21T14:11:12.867Z,87.97
2022-08-21T14:14:06.194Z,87.61
2022-08-21T14:17:25.017Z,85.73
2022-08-21T14:20:21.090Z,86.70
2022-08-21T14:23:10.977Z,86.98
2022-08-21T14:25:54.573Z,88.16
2022-08-21T14:28:48.828Z,88.61
2022-08-21T14:31:41.823Z,88.62
2022-08-21T14:34:36.350Z,87.98
2022-08-21T14:37:16.784Z,88.46
2022-08-21T14:40:04.873Z,89.18
2022-08-21T14:42:48.810Z,88.87
2022-08-21T14:45:44.764Z,87.89
2022-08-21T14:48:27.107Z,88.30
2022-08-21T14:51:14.849Z,88.78
2022-08-21T14:53:55.751Z,90.32
2022-08-21T14:56:47.747Z,92.10
2022-08-21T14:59:29.797Z,92.45
2022-08-21T15:02:17.839Z,92.40
2022-08-21T15:05:00.122Z,92.92
2022-08-21T15:07:48.239Z,93.63
2022-08-21T15:10:29.467Z,95.25
2022-08-21T15:13:16.860Z,96.69
2022-08-21T15:16:00.893Z,95.70
2022-08-21T15:18:50.295Z,95.21
2022-08-21T15:21:31.333Z,95.89
2022-08-21T15:24:18.837Z,98.24
2022-08-21T15:27:01.937Z,99.17
2022-08-21T15:29:54.235Z,99.92
2022-08-21T15:32:36.783Z,100.00
2022-08-21T15:35:24.930Z,100.00
2022-08-21T15:38:06.289Z,99.61
2022-08-21T15:41:01.631Z,99.90
2022-08-21T15:43:50.743Z,96.96
2022-08-21T15:46:38.910Z,95.33
2022-08-21T15:49:22.003Z,95.95
2022-08-21T15:52:10.815Z,96.88
2022-08-21T15:54:52.304Z,97.65
2022-08-21T15:57:38.907Z,97.68
2022-08-21T16:00:24.278Z,99.54
2022-08-21T16:03:16.065Z,100.00
2022-08-21T16:05:59.857Z,100.00
2022-08-21T16:08:47.936Z,100.00
2022-08-21T16:11:29.012Z,100.00
2022-08-21T16:14:23.369Z,100.00
2022-08-21T16:17:04.554Z,100.00
2022-08-21T16:19:53.030Z,100.00
2022-08-21T16:22:47.972Z,100.00
2022-08-21T16:25:35.877Z,100.00
2022-08-21T16:28:23.863Z,100.00
2022-08-21T16:31:11.912Z,100.00
2022-08-21T16:34:00.998Z,100.00
2022-08-21T16:36:48.133Z,100.00
2022-08-21T16:39:29.209Z,100.00
2022-08-21T16:42:21.862Z,100.00
2022-08-21T16:45:03.803Z,100.00
2022-08-21T16:47:52.043Z,100.00
2022-08-21T16:50:34.205Z,100.00
2022-08-21T16:53:20.875Z,100.00
2022-08-21T16:56:08.571Z,100.00
2022-08-21T16:58:57.928Z,100.00
2022-08-21T17:01:40.891Z,100.00
2022-08-21T17:04:28.938Z,100.00
2022-08-21T17:07:10.273Z,100.00
2022-08-21T17:09:59.105Z,100.00
2022-08-21T17:12:41.558Z,100.00
2022-08-21T17:15:34.924Z,100.00
2022-08-21T17:18:20.278Z,100.00
2022-08-21T17:21:09.227Z,100.00
2022-08-21T17:24:04.842Z,100.00
2022-08-21T17:26:51.922Z,100.00
2022-08-21T17:29:41.190Z,100.00
2022-08-21T17:32:32.517Z,100.00
2022-08-21T17:35:15.179Z,100.00
2022-08-21T17:38:01.928Z,100.00
2022-08-21T17:40:46.681Z,100.00
2022-08-21T17:43:36.002Z,100.00
2022-08-21T17:46:24.424Z,100.00
2022-08-21T17:49:16.154Z,100.00
2022-08-21T17:52:01.404Z,100.00
2022-08-21T17:54:50.661Z,100.00
2022-08-21T17:57:34.841Z,100.00
2022-08-21T18:00:25.949Z,100.00
2022-08-21T18:03:20.859Z,99.63
2022-08-21T18:06:08.990Z,98.79
2022-08-21T18:08:51.251Z,97.14
2022-08-21T18:11:38.973Z,99.12
2022-08-21T18:14:21.235Z,100.00
2022-08-21T18:17:09.031Z,100.00
2022-08-21T18:19:50.237Z,100.00
2022-08-21T18:22:43.836Z,100.00
2022-08-21T18:25:31.211Z,100.00
2022-08-21T18:28:14.238Z,100.00
2022-08-21T18:31:27.855Z,100.00
2022-08-21T18:34:19.563Z,100.00
2022-08-21T18:37:09.235Z,100.00
2022-08-21T18:39:50.314Z,100.00
2022-08-21T18:42:55.683Z,100.00
2022-08-21T18:45:38.072Z,100.00
2022-08-21T18:48:29.382Z,100.00
2022-08-21T18:51:11.391Z,100.00
2022-08-21T18:54:00.879Z,100.00
2022-08-21T18:56:42.041Z,100.00
2022-08-21T18:59:34.097Z,100.00
2022-08-21T19:02:16.265Z,100.00
2022-08-21T19:05:05.382Z,100.00
2022-08-21T19:07:47.984Z,100.00
2022-08-21T19:10:36.653Z,100.00
2022-08-21T19:13:21.096Z,100.00
2022-08-21T19:16:12.261Z,100.00
2022-08-21T19:18:53.020Z,100.00
2022-08-21T19:21:43.648Z,100.00
2022-08-21T19:24:39.886Z,100.00
2022-08-21T19:27:37.892Z,100.00
2022-08-21T19:30:19.398Z,100.00
2022-08-21T19:33:06.878Z,100.00
2022-08-21T19:35:48.234Z,100.00
2022-08-21T19:38:43.015Z,100.00
2022-08-21T19:41:25.223Z,100.00
2022-08-21T19:44:15.061Z,100.00
2022-08-21T19:50:17.506Z,100.00
2022-08-21T19:52:59.148Z,100.00
2022-08-21T19:55:50.960Z,100.00
2022-08-21T19:58:35.517Z,100.00
2022-08-21T20:01:28.041Z,100.00
2022-08-21T20:04:18.242Z,100.00
2022-08-21T20:07:08.235Z,100.00
2022-08-21T20:10:08.057Z,100.00
2022-08-21T20:12:58.034Z,100.00
2022-08-21T20:15:39.017Z,100.00
2022-08-21T20:18:32.676Z,100.00
2022-08-21T20:21:14.239Z,100.00
2022-08-21T20:24:11.501Z,100.00
2022-08-21T20:27:05.979Z,100.00
2022-08-21T20:29:47.715Z,100.00
2022-08-21T20:32:39.080Z,100.00
2022-08-21T20:35:23.956Z,100.00
2022-08-21T20:41:30.281Z,100.00
2022-08-21T20:44:20.051Z,100.00
2022-08-21T20:47:01.012Z,100.00
2022-08-21T20:50:10.434Z,100.00
2022-08-21T20:52:58.719Z,100.00
2022-08-21T20:55:57.256Z,100.00
2022-08-21T20:58:49.687Z,100.00
2022-08-21T21:01:41.076Z,100.00
2022-08-21T21:04:39.025Z,100.00
2022-08-21T21:07:45.956Z,100.00
2022-08-21T21:10:44.859Z,100.00
2022-08-21T21:13:47.059Z,100.00
2022-08-21T21:16:52.205Z,100.00
2022-08-21T21:19:40.215Z,100.00
2022-08-21T21:22:34.309Z,100.00
2022-08-21T21:25:47.041Z,100.00
2022-08-21T21:28:55.144Z,100.00
2022-08-21T21:31:43.506Z,100.00
2022-08-21T21:34:24.332Z,100.00
2022-08-21T21:40:26.373Z,100.00
2022-08-21T21:43:18.332Z,100.00
2022-08-21T21:46:32.542Z,100.00
2022-08-21T21:49:39.080Z,100.00
2022-08-21T21:53:00.020Z,100.00
2022-08-21T21:55:53.591Z,100.00
2022-08-21T21:58:45.973Z,100.00
2022-08-21T22:01:44.118Z,100.00
2022-08-21T22:04:38.992Z,100.00
2022-08-21T22:07:55.231Z,100.00
2022-08-21T22:10:47.076Z,100.00
2022-08-21T22:13:49.061Z,100.00
2022-08-21T22:16:30.468Z,100.00
2022-08-21T22:19:29.324Z,100.00
2022-08-21T22:22:20.018Z,100.00
2022-08-21T22:25:35.954Z,100.00
2022-08-21T22:28:31.030Z,100.00
2022-08-21T22:31:34.943Z,100.00
2022-08-21T22:34:26.755Z,100.00
2022-08-21T22:37:14.399Z,100.00
2022-08-21T22:40:05.384Z,100.00
2022-08-21T22:42:46.492Z,100.00
2022-08-21T22:45:39.808Z,100.00
2022-08-21T22:48:27.118Z,100.00
2022-08-21T22:51:32.339Z,100.00
2022-08-21T22:54:16.682Z,100.00
2022-08-21T22:57:15.466Z,100.00
2022-08-21T23:00:04.118Z,100.00
2022-08-21T23:02:59.493Z,100.00
2022-08-21T23:05:44.414Z,100.00
2022-08-21T23:11:50.742Z,100.00
2022-08-21T23:14:42.824Z,100.00
2022-08-21T23:17:51.742Z,100.00
2022-08-21T23:21:16.387Z,100.00
2022-08-21T23:24:26.993Z,100.00
2022-08-21T23:27:46.042Z,100.00
2022-08-21T23:30:47.544Z,100.00
2022-08-21T23:33:42.122Z,100.00
2022-08-21T23:36:58.747Z,100.00
2022-08-21T23:40:04.436Z,100.00
2022-08-21T23:43:18.563Z,100.00
2022-08-21T23:46:15.060Z,100.00
2022-08-21T23:49:19.150Z,100.00
2022-08-21T23:52:17.769Z,100.00
2022-08-21T23:55:43.484Z,100.00
2022-08-21T23:59:28.163Z,100.00
